createdAt,value
2022-10-25T00:02:00.602Z,12.91
2022-10-25T00:07:28.564Z,12.92
2022-10-25T00:12:57.521Z,12.94
2022-10-25T00:18:22.550Z,12.95
2022-10-25T00:23:49.545Z,12.93
2022-10-25T00:29:20.592Z,12.91
2022-10-25T00:34:45.526Z,12.92
2022-10-25T00:40:12.539Z,12.90
2022-10-25T00:45:37.578Z,12.89
2022-10-25T00:51:05.567Z,12.81
2022-10-25T00:56:37.587Z,12.75
2022-10-25T01:02:02.671Z,12.71
2022-10-25T01:07:27.575Z,12.64
2022-10-25T01:12:54.876Z,12.59
2022-10-25T01:18:26.596Z,12.49
2022-10-25T01:24:10.592Z,12.45
2022-10-25T01:30:19.586Z,12.41
2022-10-25T01:35:48.574Z,12.37
2022-10-25T01:41:24.601Z,12.38
2022-10-25T01:46:55.571Z,12.32
2022-10-25T01:52:23.583Z,12.37
2022-10-25T01:58:02.573Z,12.36
2022-10-25T02:03:35.583Z,12.33
2022-10-25T02:09:09.626Z,12.30
2022-10-25T02:14:40.626Z,12.25
2022-10-25T02:20:09.626Z,12.22
2022-10-25T02:25:38.591Z,12.22
2022-10-25T02:31:05.595Z,12.19
2022-10-25T02:36:32.631Z,12.21
2022-10-25T02:41:59.606Z,12.23
2022-10-25T02:47:24.646Z,12.24
2022-10-25T02:52:48.990Z,12.24
2022-10-25T02:58:16.608Z,12.24
2022-10-25T03:03:41.783Z,12.19
2022-10-25T03:09:06.650Z,12.19
2022-10-25T03:14:33.632Z,12.17
2022-10-25T03:19:58.641Z,12.11
2022-10-25T03:25:23.667Z,12.01
2022-10-25T03:30:57.629Z,11.90
2022-10-25T03:36:23.654Z,11.81
2022-10-25T03:41:47.670Z,11.75
2022-10-25T03:47:15.648Z,11.68
2022-10-25T03:52:39.651Z,11.60
2022-10-25T03:58:04.682Z,11.53
2022-10-25T04:03:31.646Z,11.45
2022-10-25T04:08:58.540Z,11.40
2022-10-25T04:14:22.748Z,11.38
2022-10-25T04:19:49.695Z,11.30
2022-10-25T04:25:13.682Z,11.34
2022-10-25T04:30:38.980Z,11.43
2022-10-25T04:36:12.685Z,11.51
2022-10-25T04:41:43.725Z,11.59
2022-10-25T04:47:08.684Z,11.68
2022-10-25T04:52:35.705Z,11.74
2022-10-25T04:58:00.681Z,11.79
2022-10-25T05:03:24.739Z,11.82
2022-10-25T05:08:54.729Z,11.85
2022-10-25T05:14:18.706Z,11.84
2022-10-25T05:19:43.714Z,11.87
2022-10-25T05:25:10.690Z,11.85
2022-10-25T05:30:35.707Z,11.81
2022-10-25T05:35:59.884Z,11.71
2022-10-25T05:41:29.662Z,11.66
2022-10-25T05:46:55.808Z,11.59
2022-10-25T05:52:20.737Z,11.52
2022-10-25T05:57:47.748Z,11.48
2022-10-25T06:03:12.760Z,11.45
2022-10-25T06:08:36.726Z,11.42
2022-10-25T06:14:04.759Z,11.48
2022-10-25T06:19:28.737Z,11.54
2022-10-25T06:24:53.719Z,11.61
2022-10-25T06:30:21.811Z,11.63
2022-10-25T06:35:46.749Z,11.63
2022-10-25T06:41:14.762Z,11.62
2022-10-25T06:47:15.446Z,11.61
2022-10-25T06:52:28.787Z,11.65
2022-10-25T06:57:53.746Z,11.70
2022-10-25T07:03:25.627Z,11.76
2022-10-25T07:08:52.777Z,11.84
2022-10-25T07:14:19.059Z,12.01
2022-10-25T07:19:46.807Z,12.11
2022-10-25T07:25:13.185Z,12.26
2022-10-25T07:30:43.763Z,12.41
2022-10-25T07:36:12.154Z,12.50
2022-10-25T07:41:35.771Z,12.62
2022-10-25T07:47:01.819Z,12.74
2022-10-25T07:52:29.810Z,12.90
2022-10-25T07:57:54.805Z,13.00
2022-10-25T08:03:21.007Z,13.12
2022-10-25T08:08:48.810Z,13.19
2022-10-25T08:14:12.918Z,13.26
2022-10-25T08:19:38.219Z,13.37
2022-10-25T08:25:04.823Z,13.50
2022-10-25T08:30:29.795Z,13.61
2022-10-25T08:35:54.909Z,13.71
2022-10-25T08:41:28.825Z,13.75
2022-10-25T08:46:56.830Z,13.83
2022-10-25T08:52:29.820Z,13.85
2022-10-25T08:57:57.818Z,13.85
2022-10-25T09:03:24.867Z,13.96
2022-10-25T09:09:13.842Z,14.01
2022-10-25T09:14:53.808Z,14.08
2022-10-25T09:20:22.973Z,14.15
2022-10-25T09:25:55.855Z,14.21
2022-10-25T09:31:34.835Z,14.24
2022-10-25T09:37:02.867Z,14.27
2022-10-25T09:42:36.875Z,14.30
2022-10-25T09:48:13.826Z,14.33
2022-10-25T09:53:37.881Z,14.28
2022-10-25T09:59:03.976Z,14.28
2022-10-25T10:04:48.857Z,14.26
2022-10-25T10:10:20.862Z,14.30
2022-10-25T10:15:48.934Z,14.39
2022-10-25T10:21:25.874Z,14.43
2022-10-25T10:27:01.872Z,14.63
2022-10-25T10:38:36.861Z,14.85
2022-10-25T10:44:00.898Z,15.00
2022-10-25T10:49:26.882Z,15.09
2022-10-25T10:55:00.881Z,15.19
2022-10-25T11:00:33.921Z,15.35
2022-10-25T11:06:10.284Z,15.64
2022-10-25T11:11:36.877Z,15.89
2022-10-25T11:17:11.562Z,15.90
2022-10-25T11:22:52.932Z,16.01
2022-10-25T11:28:36.992Z,15.95
2022-10-25T11:34:15.931Z,15.88
2022-10-25T11:39:50.956Z,15.79
2022-10-25T11:45:32.915Z,15.74
2022-10-25T11:51:02.924Z,15.64
2022-10-25T11:56:36.998Z,15.52
2022-10-25T12:02:18.994Z,15.32
2022-10-25T12:07:49.959Z,15.22
2022-10-25T12:13:17.967Z,15.53
2022-10-25T12:18:51.933Z,15.71
2022-10-25T12:24:16.922Z,15.62
2022-10-25T12:29:53.948Z,15.56
2022-10-25T12:35:29.946Z,15.53
2022-10-25T12:40:58.966Z,15.56
2022-10-25T12:47:00.977Z,15.67
2022-10-25T12:52:43.991Z,15.73
2022-10-25T12:58:33.961Z,15.74
2022-10-25T13:04:24.965Z,15.76
2022-10-25T13:09:52.969Z,15.73
2022-10-25T13:15:18.955Z,15.68
2022-10-25T13:20:57.980Z,15.61
2022-10-25T13:26:32.011Z,15.52
2022-10-25T13:32:14.018Z,15.48
2022-10-25T13:37:52.039Z,15.42
2022-10-25T13:43:20.999Z,15.34
2022-10-25T13:48:49.999Z,15.28
2022-10-25T13:54:18.987Z,15.29
2022-10-25T14:06:18.558Z,15.30
2022-10-25T14:11:49.952Z,15.33
2022-10-25T14:17:27.025Z,15.64
2022-10-25T14:22:53.033Z,15.87
2022-10-25T14:28:24.011Z,15.77
2022-10-25T14:33:55.027Z,15.44
2022-10-25T14:39:32.517Z,15.25
2022-10-25T14:44:59.045Z,15.12
2022-10-25T14:50:30.053Z,14.99
2022-10-25T14:56:02.043Z,14.78
2022-10-25T15:01:27.152Z,14.68
2022-10-25T15:06:58.041Z,14.56
2022-10-25T15:12:31.044Z,14.57
2022-10-25T15:18:01.059Z,14.63
2022-10-25T15:23:36.092Z,14.68
2022-10-25T15:29:09.051Z,14.66
2022-10-25T15:34:34.135Z,14.62
2022-10-25T15:40:02.045Z,14.60
2022-10-25T15:45:27.055Z,14.58
2022-10-25T15:50:55.063Z,14.56
2022-10-25T15:56:27.220Z,14.51
2022-10-25T16:01:51.226Z,14.41
2022-10-25T16:07:20.074Z,14.32
2022-10-25T16:12:48.455Z,14.23
2022-10-25T16:18:14.153Z,14.09
2022-10-25T16:23:39.248Z,13.92
2022-10-25T16:29:06.116Z,13.75
2022-10-25T16:34:30.083Z,13.61
2022-10-25T16:39:56.134Z,13.40
2022-10-25T16:45:30.106Z,13.26
2022-10-25T16:50:49.101Z,13.08
2022-10-25T16:56:15.090Z,12.99
2022-10-25T17:01:46.234Z,12.90
2022-10-25T17:07:11.111Z,12.84
2022-10-25T17:12:35.119Z,12.80
2022-10-25T17:18:02.113Z,12.76
2022-10-25T17:23:26.117Z,12.68
2022-10-25T17:28:51.305Z,12.61
2022-10-25T17:34:19.313Z,12.57
2022-10-25T17:39:44.141Z,12.53
2022-10-25T17:45:08.154Z,12.48
2022-10-25T17:50:36.175Z,12.43
2022-10-25T17:56:00.166Z,12.36
2022-10-25T18:01:27.504Z,12.30
2022-10-25T18:06:54.126Z,12.25
2022-10-25T18:12:19.276Z,12.20
2022-10-25T18:17:43.160Z,12.11
2022-10-25T18:23:11.189Z,12.06
2022-10-25T18:28:35.146Z,11.98
2022-10-25T18:34:02.203Z,11.91
2022-10-25T18:39:29.178Z,11.89
2022-10-25T18:44:54.159Z,11.82
2022-10-25T18:50:18.163Z,11.71
2022-10-25T18:55:46.224Z,11.64
2022-10-25T19:01:10.286Z,11.55
2022-10-25T19:06:36.191Z,11.48
2022-10-25T19:12:03.191Z,11.40
2022-10-25T19:17:28.191Z,11.33
2022-10-25T19:22:52.219Z,11.23
2022-10-25T19:28:20.192Z,11.13
2022-10-25T19:33:51.226Z,11.05
2022-10-25T19:39:17.435Z,10.95
2022-10-25T19:44:44.210Z,10.85
2022-10-25T19:50:10.190Z,10.74
2022-10-25T19:55:34.320Z,10.68
2022-10-25T20:01:09.484Z,10.55
2022-10-25T20:06:35.211Z,10.50
2022-10-25T20:12:00.209Z,10.46
2022-10-25T20:17:27.285Z,10.40
2022-10-25T20:22:52.211Z,10.39
2022-10-25T20:28:17.248Z,10.38
2022-10-25T20:33:51.230Z,10.36
2022-10-25T20:39:16.220Z,10.30
2022-10-25T20:44:41.274Z,10.25
2022-10-25T20:50:09.282Z,10.16
2022-10-25T20:55:36.309Z,10.13
2022-10-25T21:01:04.509Z,10.09
2022-10-25T21:06:31.295Z,10.08
2022-10-25T21:11:56.243Z,10.13
2022-10-25T21:17:20.250Z,10.17
2022-10-25T21:22:49.254Z,10.22
2022-10-25T21:28:13.246Z,10.23
2022-10-25T21:33:49.359Z,10.22
2022-10-25T21:39:17.260Z,10.21
2022-10-25T21:44:41.253Z,10.21
2022-10-25T21:50:07.433Z,10.21
2022-10-25T21:55:34.272Z,10.11
2022-10-25T22:00:59.250Z,10.00
2022-10-25T22:06:25.285Z,9.91
2022-10-25T22:11:53.311Z,9.91
2022-10-25T22:17:18.383Z,9.85
2022-10-25T22:22:43.253Z,9.74
2022-10-25T22:28:10.289Z,9.65
2022-10-25T22:33:41.308Z,9.54
2022-10-25T22:39:07.309Z,9.44
2022-10-25T22:44:34.307Z,9.35
2022-10-25T22:49:59.285Z,9.20
2022-10-25T22:55:24.292Z,9.07
2022-10-25T23:00:52.333Z,9.09
2022-10-25T23:06:19.344Z,9.13
2022-10-25T23:11:46.320Z,9.11
2022-10-25T23:17:13.298Z,9.12
2022-10-25T23:22:38.325Z,9.13
2022-10-25T23:28:02.319Z,9.11
2022-10-25T23:33:36.298Z,9.12
2022-10-25T23:39:02.298Z,9.10
2022-10-25T23:44:26.318Z,9.12
2022-10-25T23:49:54.312Z,9.16
2022-10-25T23:55:18.324Z,9.19
